Midway, Tennessee
Current Conditions -  °F | °C
As of 2:35 PM on Tuesday 21 Oct 2014 (Local Time) from KMOR Reporting Station
Few Clouds Few Clouds  
Wind Chill: 64°   Ceiling: Unl
Heat Index: 64°   Visibility: 10mi
Dew Point: 45°   Wind: 12mph
Humidity: 49%   Direction: 300°WNW
Pressure: 30"   Gusts: NA
Location:  36.14°N, 83.04°W
Report Text: KMOR 211835Z AUTO 30010KT 10SM FEW055 18/07 A3000 RMK
Loading
Personal Weather Stations






























Interactive Weather Map
Tropical Storm Tracking
New forecast layout! Learn more

10-Day Weather Forecast

Advertisements
Track Severe Weather on mobile